Map

Track Data

SID SEASON NUMBER BASIN SUBBASIN NAME ISO_TIME NATURE LAT LON WMO_WIND WMO_PRES WMO_AGENCY TRACK_TYPE DIST2LAND LANDFALL IFLAG USA_AGENCY USA_ATCF_ID USA_LAT USA_LON USA_RECORD USA_STATUS USA_WIND USA_PRES USA_SSHS USA_R34_NE USA_R34_SE USA_R34_SW USA_R34_NW USA_R50_NE USA_R50_SE USA_R50_SW USA_R50_NW USA_R64_NE USA_R64_SE USA_R64_SW USA_R64_NW USA_POCI USA_ROCI USA_RMW USA_EYE TOKYO_LAT TOKYO_LON TOKYO_GRADE TOKYO_WIND TOKYO_PRES TOKYO_R50_DIR TOKYO_R50_LONG TOKYO_R50_SHORT TOKYO_R30_DIR TOKYO_R30_LONG TOKYO_R30_SHORT TOKYO_LAND CMA_LAT CMA_LON CMA_CAT CMA_WIND CMA_PRES HKO_LAT HKO_LON HKO_CAT HKO_WIND HKO_PRES NEWDELHI_LAT NEWDELHI_LON NEWDELHI_GRADE NEWDELHI_WIND NEWDELHI_PRES NEWDELHI_CI NEWDELHI_DP NEWDELHI_POCI REUNION_LAT REUNION_LON REUNION_TYPE REUNION_WIND REUNION_PRES REUNION_TNUM REUNION_CI REUNION_RMW REUNION_R34_NE REUNION_R34_SE REUNION_R34_SW REUNION_R34_NW REUNION_R50_NE REUNION_R50_SE REUNION_R50_SW REUNION_R50_NW REUNION_R64_NE REUNION_R64_SE REUNION_R64_SW REUNION_R64_NW BOM_LAT BOM_LON BOM_TYPE BOM_WIND BOM_PRES BOM_TNUM BOM_CI BOM_RMW BOM_R34_NE BOM_R34_SE BOM_R34_SW BOM_R34_NW BOM_R50_NE BOM_R50_SE BOM_R50_SW BOM_R50_NW BOM_R64_NE BOM_R64_SE BOM_R64_SW BOM_R64_NW BOM_ROCI BOM_POCI BOM_EYE BOM_POS_METHOD BOM_PRES_METHOD NADI_LAT NADI_LON NADI_CAT NADI_WIND NADI_PRES WELLINGTON_LAT WELLINGTON_LON WELLINGTON_WIND WELLINGTON_PRES DS824_LAT DS824_LON DS824_STAGE DS824_WIND DS824_PRES TD9636_LAT TD9636_LON TD9636_STAGE TD9636_WIND TD9636_PRES TD9635_LAT TD9635_LON TD9635_WIND TD9635_PRES TD9635_ROCI NEUMANN_LAT NEUMANN_LON NEUMANN_CLASS NEUMANN_WIND NEUMANN_PRES MLC_LAT MLC_LON MLC_CLASS MLC_WIND MLC_PRES USA_GUST BOM_GUST BOM_GUST_PER REUNION_GUST REUNION_GUST_PER USA_SEAHGT USA_SEARAD_NE USA_SEARAD_SE USA_SEARAD_SW USA_SEARAD_NW STORM_SPEED STORM_DIR
1906287N34298 1906 46 NA NA NOT_NAMED 1906-10-14 06:00:00 TS 33.7000 -62.0000 35 hurdat_atl main 1127 1096 O_____________ hurdat_atl AL091906 33.7000 -62.0000 TS 35 0 12 270
1906287N34298 1906 46 NA NA NOT_NAMED 1906-10-14 09:00:00 TS 33.6985 -62.7451 main 1096 1057 P_____________ AL091906 33.6984 -62.7451 TS 35 0 12 270
1906287N34298 1906 46 NA NA NOT_NAMED 1906-10-14 12:00:00 TS 33.7000 -63.5000 35 hurdat_atl main 1057 1025 O_____________ hurdat_atl AL091906 33.7000 -63.5000 TS 35 0 13 270
1906287N34298 1906 46 NA NA NOT_NAMED 1906-10-14 15:00:00 TS 33.7068 -64.2773 main 1021 976 P_____________ AL091906 33.7068 -64.2773 TS 35 0 13 270
1906287N34298 1906 46 NA NA NOT_NAMED 1906-10-14 18:00:00 TS 33.7000 -65.1000 35 hurdat_atl main 976 896 O_____________ hurdat_atl AL091906 33.7000 -65.1000 TS 35 0 15 268
1906287N34298 1906 46 NA NA NOT_NAMED 1906-10-14 21:00:00 TS 33.6654 -66.0225 main 896 821 P_____________ AL091906 33.6654 -66.0225 TS 37 0 15 266
1906287N34298 1906 46 NA NA NOT_NAMED 1906-10-15 00:00:00 TS 33.6000 -66.9000 40 hurdat_atl main 821 773 O_____________ hurdat_atl AL091906 33.6000 -66.9000 TS 40 0 13 263
1906287N34298 1906 46 NA NA NOT_NAMED 1906-10-15 03:00:00 TS 33.5063 -67.5724 main 765 718 P_____________ AL091906 33.5062 -67.5724 TS 40 0 11 260
1906287N34298 1906 46 NA NA NOT_NAMED 1906-10-15 06:00:00 TS 33.4000 -68.2000 40 hurdat_atl main 718 664 O_____________ hurdat_atl AL091906 33.4000 -68.2000 TS 40 0 11 261
1906287N34298 1906 46 NA NA NOT_NAMED 1906-10-15 09:00:00 TS 33.3220 -68.9192 main 664 604 P_____________ AL091906 33.3220 -68.9192 TS 42 0 13 261
1906287N34298 1906 46 NA NA NOT_NAMED 1906-10-15 12:00:00 TS 33.2000 -69.7000 45 hurdat_atl main 604 553 O_____________ hurdat_atl AL091906 33.2000 -69.7000 TS 45 0 14 256
1906287N34298 1906 46 NA NA NOT_NAMED 1906-10-15 15:00:00 TS 32.9797 -70.5351 main 553 510 P_____________ AL091906 32.9797 -70.5351 TS 45 0 15 251
1906287N34298 1906 46 NA NA NOT_NAMED 1906-10-15 18:00:00 TS 32.7000 -71.4000 45 hurdat_atl main 510 470 O_____________ hurdat_atl AL091906 32.7000 -71.4000 TS 45 0 15 249
1906287N34298 1906 46 NA NA NOT_NAMED 1906-10-15 21:00:00 TS 32.4293 -72.2414 main 470 427 P_____________ AL091906 32.4293 -72.2414 TS 45 0 16 247
1906287N34298 1906 46 NA NA NOT_NAMED 1906-10-16 00:00:00 TS 32.1000 -73.1000 45 hurdat_atl main 428 407 O_____________ hurdat_atl AL091906 32.1000 -73.1000 TS 45 0 17 243
1906287N34298 1906 46 NA NA NOT_NAMED 1906-10-16 03:00:00 TS 31.6573 -74.0080 main 407 406 P_____________ AL091906 31.6573 -74.0080 TS 45 0 18 240
1906287N34298 1906 46 NA NA NOT_NAMED 1906-10-16 06:00:00 TS 31.2000 -74.9000 45 hurdat_atl main 417 397 O_____________ hurdat_atl AL091906 31.2000 -74.9000 TS 45 0 17 241
1906287N34298 1906 46 NA NA NOT_NAMED 1906-10-16 09:00:00 TS 30.8126 -75.7748 main 402 389 P_____________ AL091906 30.8126 -75.7748 TS 45 0 15 243
1906287N34298 1906 46 NA NA NOT_NAMED 1906-10-16 12:00:00 TS 30.5000 -76.5000 45 hurdat_atl main 390 379 O_____________ hurdat_atl AL091906 30.5000 -76.5000 TS 45 0 12 242
1906287N34298 1906 46 NA NA NOT_NAMED 1906-10-16 15:00:00 TS 30.2617 -76.9667 main 376 357 P_____________ AL091906 30.2617 -76.9667 TS 42 0 8 240
1906287N34298 1906 46 NA NA NOT_NAMED 1906-10-16 18:00:00 TS 30.1000 -77.3000 40 hurdat_atl main 357 327 O_____________ hurdat_atl AL091906 30.1000 -77.3000 TS 40 0 7 246
1906287N34298 1906 46 NA NA NOT_NAMED 1906-10-16 21:00:00 TS 29.9923 -77.6572 main 318 288 P_____________ AL091906 29.9923 -77.6572 TS 40 0 6 252
1906287N34298 1906 46 NA NA NOT_NAMED 1906-10-17 00:00:00 TS 29.9000 -78.0000 40 hurdat_atl main 288 258 O_____________ hurdat_atl AL091906 29.9000 -78.0000 TS 40 0 6 248
1906287N34298 1906 46 NA NA NOT_NAMED 1906-10-17 03:00:00 TS 29.7573 -78.3424 main 258 213 P_____________ AL091906 29.7573 -78.3424 TS 37 0 7 244
1906287N34298 1906 46 NA NA NOT_NAMED 1906-10-17 06:00:00 TS 29.6000 -78.7000 35 hurdat_atl main 213 183 O_____________ hurdat_atl AL091906 29.6000 -78.7000 TS 35 0 7 245
1906287N34298 1906 46 NA NA NOT_NAMED 1906-10-17 09:00:00 TS 29.4647 -79.0696 main 175 132 P_____________ AL091906 29.4647 -79.0696 TS 32 -1 8 247
1906287N34298 1906 46 NA NA NOT_NAMED 1906-10-17 12:00:00 TS 29.3000 -79.5000 30 hurdat_atl main 132 80 O_____________ hurdat_atl AL091906 29.3000 -79.5000 TD 30 -1 9 245
1906287N34298 1906 46 NA NA NOT_NAMED 1906-10-17 15:00:00 TS 29.0706 -80.0233 main 80 14 P_____________ AL091906 29.0706 -80.0233 TD 27 -1 11 243
1906287N34298 1906 46 NA NA NOT_NAMED 1906-10-17 18:00:00 TS 28.8000 -80.6000 25 hurdat_atl main 14 O_____________ hurdat_atl AL091906 28.8000 -80.6000 TD 25 -1 11 242

About IBTrACS Database

This database is a web-friendly format of International Best Track Archive for Climate Stewardship (IBTrACS), a global best track data archive curated by NOAA dating back to 1842.

Updated: 2021-11-26